sensor_id;sensor_type;location;lat;lon;timestamp;P1;durP1;ratioP1;P2;durP2;ratioP2
26588;SDS011;14235;48.532;8.722;2023-04-24T00:02:13;0.77;;;0.77;;
26588;SDS011;14235;48.532;8.722;2023-04-24T00:04:39;1.13;;;1.05;;
26588;SDS011;14235;48.532;8.722;2023-04-24T00:07:05;0.77;;;0.60;;
26588;SDS011;14235;48.532;8.722;2023-04-24T00:09:32;1.50;;;0.90;;
26588;SDS011;14235;48.532;8.722;2023-04-24T00:11:58;0.60;;;0.60;;
26588;SDS011;14235;48.532;8.722;2023-04-24T00:14:24;0.65;;;0.63;;
26588;SDS011;14235;48.532;8.722;2023-04-24T00:16:49;0.82;;;0.68;;
26588;SDS011;14235;48.532;8.722;2023-04-24T00:19:15;0.52;;;0.45;;
26588;SDS011;14235;48.532;8.722;2023-04-24T00:21:41;3.10;;;1.00;;
26588;SDS011;14235;48.532;8.722;2023-04-24T00:24:07;1.05;;;0.95;;
26588;SDS011;14235;48.532;8.722;2023-04-24T00:26:34;1.27;;;0.90;;
26588;SDS011;14235;48.532;8.722;2023-04-24T00:28:59;1.50;;;0.73;;
26588;SDS011;14235;48.532;8.722;2023-04-24T00:31:25;1.05;;;1.00;;
26588;SDS011;14235;48.532;8.722;2023-04-24T00:33:50;1.13;;;0.85;;
26588;SDS011;14235;48.532;8.722;2023-04-24T00:36:16;0.63;;;0.63;;
26588;SDS011;14235;48.532;8.722;2023-04-24T00:38:44;0.95;;;0.90;;
26588;SDS011;14235;48.532;8.722;2023-04-24T00:41:10;0.88;;;0.77;;
26588;SDS011;14235;48.532;8.722;2023-04-24T00:43:36;1.20;;;0.88;;
26588;SDS011;14235;48.532;8.722;2023-04-24T00:46:01;1.05;;;0.80;;
26588;SDS011;14235;48.532;8.722;2023-04-24T00:48:27;0.68;;;0.68;;
26588;SDS011;14235;48.532;8.722;2023-04-24T00:50:53;1.48;;;0.80;;
26588;SDS011;14235;48.532;8.722;2023-04-24T00:53:19;1.27;;;0.73;;
26588;SDS011;14235;48.532;8.722;2023-04-24T00:55:44;1.15;;;1.00;;
26588;SDS011;14235;48.532;8.722;2023-04-24T00:58:11;0.95;;;0.70;;
26588;SDS011;14235;48.532;8.722;2023-04-24T01:00:37;1.13;;;0.70;;
26588;SDS011;14235;48.532;8.722;2023-04-24T01:03:04;0.73;;;0.60;;
26588;SDS011;14235;48.532;8.722;2023-04-24T01:05:31;1.13;;;0.70;;
26588;SDS011;14235;48.532;8.722;2023-04-24T01:07:57;1.05;;;0.98;;
26588;SDS011;14235;48.532;8.722;2023-04-24T01:10:24;0.60;;;0.60;;
26588;SDS011;14235;48.532;8.722;2023-04-24T01:12:52;0.75;;;0.75;;
26588;SDS011;14235;48.532;8.722;2023-04-24T01:15:18;2.15;;;0.70;;
26588;SDS011;14235;48.532;8.722;2023-04-24T01:17:43;1.55;;;0.60;;
26588;SDS011;14235;48.532;8.722;2023-04-24T01:20:10;0.93;;;0.70;;
26588;SDS011;14235;48.532;8.722;2023-04-24T01:22:35;0.70;;;0.70;;
26588;SDS011;14235;48.532;8.722;2023-04-24T01:25:01;1.77;;;0.80;;
26588;SDS011;14235;48.532;8.722;2023-04-24T01:27:28;0.80;;;0.80;;
26588;SDS011;14235;48.532;8.722;2023-04-24T01:29:54;1.13;;;0.80;;
26588;SDS011;14235;48.532;8.722;2023-04-24T01:32:19;1.85;;;0.75;;
26588;SDS011;14235;48.532;8.722;2023-04-24T01:34:45;3.08;;;0.70;;
26588;SDS011;14235;48.532;8.722;2023-04-24T01:37:13;0.98;;;0.85;;
26588;SDS011;14235;48.532;8.722;2023-04-24T01:39:38;2.58;;;1.10;;
26588;SDS011;14235;48.532;8.722;2023-04-24T01:42:04;1.73;;;0.80;;
26588;SDS011;14235;48.532;8.722;2023-04-24T01:44:30;1.02;;;0.90;;
26588;SDS011;14235;48.532;8.722;2023-04-24T01:46:56;1.17;;;0.75;;
26588;SDS011;14235;48.532;8.722;2023-04-24T01:49:22;1.13;;;0.65;;
26588;SDS011;14235;48.532;8.722;2023-04-24T01:51:47;2.05;;;0.90;;
26588;SDS011;14235;48.532;8.722;2023-04-24T01:54:14;0.82;;;0.82;;
26588;SDS011;14235;48.532;8.722;2023-04-24T01:56:40;1.42;;;0.90;;
26588;SDS011;14235;48.532;8.722;2023-04-24T01:59:10;1.55;;;0.95;;
26588;SDS011;14235;48.532;8.722;2023-04-24T02:01:36;1.67;;;0.82;;
26588;SDS011;14235;48.532;8.722;2023-04-24T02:04:03;2.05;;;0.80;;
26588;SDS011;14235;48.532;8.722;2023-04-24T02:06:29;2.20;;;1.00;;
26588;SDS011;14235;48.532;8.722;2023-04-24T02:08:57;2.35;;;1.02;;
26588;SDS011;14235;48.532;8.722;2023-04-24T02:11:23;1.08;;;0.80;;
26588;SDS011;14235;48.532;8.722;2023-04-24T02:13:49;1.25;;;0.90;;
26588;SDS011;14235;48.532;8.722;2023-04-24T02:16:16;1.05;;;0.90;;
26588;SDS011;14235;48.532;8.722;2023-04-24T02:18:42;0.70;;;0.70;;
26588;SDS011;14235;48.532;8.722;2023-04-24T02:21:08;0.98;;;0.80;;
26588;SDS011;14235;48.532;8.722;2023-04-24T02:23:34;1.00;;;0.95;;
26588;SDS011;14235;48.532;8.722;2023-04-24T02:25:59;1.02;;;0.77;;
26588;SDS011;14235;48.532;8.722;2023-04-24T02:28:25;1.98;;;0.82;;
26588;SDS011;14235;48.532;8.722;2023-04-24T02:30:51;0.85;;;0.70;;
26588;SDS011;14235;48.532;8.722;2023-04-24T02:33:16;1.30;;;0.90;;
26588;SDS011;14235;48.532;8.722;2023-04-24T02:35:42;1.85;;;0.68;;
26588;SDS011;14235;48.532;8.722;2023-04-24T02:38:07;1.60;;;0.60;;
26588;SDS011;14235;48.532;8.722;2023-04-24T02:40:33;2.60;;;0.85;;
26588;SDS011;14235;48.532;8.722;2023-04-24T02:42:58;0.82;;;0.70;;
26588;SDS011;14235;48.532;8.722;2023-04-24T02:45:24;2.20;;;0.90;;
26588;SDS011;14235;48.532;8.722;2023-04-24T02:47:50;2.58;;;1.00;;
26588;SDS011;14235;48.532;8.722;2023-04-24T02:50:15;1.70;;;0.88;;
26588;SDS011;14235;48.532;8.722;2023-04-24T02:52:41;1.02;;;0.60;;
26588;SDS011;14235;48.532;8.722;2023-04-24T02:55:06;1.42;;;1.00;;
26588;SDS011;14235;48.532;8.722;2023-04-24T02:57:33;0.77;;;0.70;;
26588;SDS011;14235;48.532;8.722;2023-04-24T02:59:58;0.80;;;0.80;;
26588;SDS011;14235;48.532;8.722;2023-04-24T03:02:24;1.65;;;0.90;;
26588;SDS011;14235;48.532;8.722;2023-04-24T03:04:50;0.80;;;0.80;;
26588;SDS011;14235;48.532;8.722;2023-04-24T03:07:15;0.52;;;0.43;;
26588;SDS011;14235;48.532;8.722;2023-04-24T03:09:41;0.70;;;0.70;;
26588;SDS011;14235;48.532;8.722;2023-04-24T03:12:08;1.27;;;0.98;;
26588;SDS011;14235;48.532;8.722;2023-04-24T03:14:33;0.60;;;0.60;;
26588;SDS011;14235;48.532;8.722;2023-04-24T03:16:59;0.75;;;0.70;;
26588;SDS011;14235;48.532;8.722;2023-04-24T03:19:25;0.70;;;0.70;;
26588;SDS011;14235;48.532;8.722;2023-04-24T03:21:51;0.40;;;0.40;;
26588;SDS011;14235;48.532;8.722;2023-04-24T03:24:16;0.60;;;0.60;;
26588;SDS011;14235;48.532;8.722;2023-04-24T03:26:42;0.68;;;0.50;;
26588;SDS011;14235;48.532;8.722;2023-04-24T03:29:07;2.58;;;0.60;;
26588;SDS011;14235;48.532;8.722;2023-04-24T03:31:33;0.55;;;0.55;;
26588;SDS011;14235;48.532;8.722;2023-04-24T03:33:58;0.45;;;0.40;;
26588;SDS011;14235;48.532;8.722;2023-04-24T03:36:24;0.70;;;0.45;;
26588;SDS011;14235;48.532;8.722;2023-04-24T03:38:51;0.47;;;0.32;;
26588;SDS011;14235;48.532;8.722;2023-04-24T03:41:16;0.50;;;0.50;;
26588;SDS011;14235;48.532;8.722;2023-04-24T03:43:42;0.52;;;0.52;;
26588;SDS011;14235;48.532;8.722;2023-04-24T03:46:07;0.40;;;0.40;;
26588;SDS011;14235;48.532;8.722;2023-04-24T03:48:34;0.50;;;0.50;;
26588;SDS011;14235;48.532;8.722;2023-04-24T03:51:00;0.65;;;0.65;;
26588;SDS011;14235;48.532;8.722;2023-04-24T03:53:25;2.20;;;0.80;;
26588;SDS011;14235;48.532;8.722;2023-04-24T03:55:51;1.45;;;0.28;;
26588;SDS011;14235;48.532;8.722;2023-04-24T03:58:18;1.30;;;0.52;;
26588;SDS011;14235;48.532;8.722;2023-04-24T04:00:43;0.60;;;0.55;;
26588;SDS011;14235;48.532;8.722;2023-04-24T04:03:09;2.10;;;0.68;;
26588;SDS011;14235;48.532;8.722;2023-04-24T04:05:35;0.50;;;0.50;;
26588;SDS011;14235;48.532;8.722;2023-04-24T04:08:00;0.75;;;0.70;;
26588;SDS011;14235;48.532;8.722;2023-04-24T04:10:26;0.50;;;0.50;;
26588;SDS011;14235;48.532;8.722;2023-04-24T04:12:51;0.65;;;0.65;;
26588;SDS011;14235;48.532;8.722;2023-04-24T04:15:17;0.40;;;0.40;;
26588;SDS011;14235;48.532;8.722;2023-04-24T04:17:42;0.50;;;0.50;;
26588;SDS011;14235;48.532;8.722;2023-04-24T04:20:08;0.50;;;0.50;;
26588;SDS011;14235;48.532;8.722;2023-04-24T04:22:35;0.40;;;0.40;;
26588;SDS011;14235;48.532;8.722;2023-04-24T04:25:01;0.70;;;0.70;;
26588;SDS011;14235;48.532;8.722;2023-04-24T04:27:28;0.60;;;0.60;;
26588;SDS011;14235;48.532;8.722;2023-04-24T04:29:56;0.88;;;0.88;;
26588;SDS011;14235;48.532;8.722;2023-04-24T04:32:24;1.20;;;0.80;;
26588;SDS011;14235;48.532;8.722;2023-04-24T04:34:49;0.50;;;0.50;;
26588;SDS011;14235;48.532;8.722;2023-04-24T04:37:18;0.60;;;0.60;;
26588;SDS011;14235;48.532;8.722;2023-04-24T04:39:44;0.70;;;0.70;;
26588;SDS011;14235;48.532;8.722;2023-04-24T04:42:09;0.88;;;0.88;;
26588;SDS011;14235;48.532;8.722;2023-04-24T04:44:35;3.25;;;1.02;;
26588;SDS011;14235;48.532;8.722;2023-04-24T04:47:01;0.80;;;0.80;;
26588;SDS011;14235;48.532;8.722;2023-04-24T04:49:30;0.70;;;0.70;;
26588;SDS011;14235;48.532;8.722;2023-04-24T04:51:57;1.73;;;0.90;;
26588;SDS011;14235;48.532;8.722;2023-04-24T04:54:22;0.90;;;0.90;;
26588;SDS011;14235;48.532;8.722;2023-04-24T04:56:51;1.00;;;1.00;;
26588;SDS011;14235;48.532;8.722;2023-04-24T04:59:17;1.33;;;0.85;;
26588;SDS011;14235;48.532;8.722;2023-04-24T05:01:42;1.20;;;1.10;;
26588;SDS011;14235;48.532;8.722;2023-04-24T05:04:08;1.77;;;1.35;;
26588;SDS011;14235;48.532;8.722;2023-04-24T05:06:33;1.83;;;0.98;;
26588;SDS011;14235;48.532;8.722;2023-04-24T05:08:59;1.40;;;1.30;;
26588;SDS011;14235;48.532;8.722;2023-04-24T05:11:25;2.72;;;1.02;;
26588;SDS011;14235;48.532;8.722;2023-04-24T05:13:50;1.23;;;1.10;;
26588;SDS011;14235;48.532;8.722;2023-04-24T05:16:16;1.13;;;1.13;;
26588;SDS011;14235;48.532;8.722;2023-04-24T05:18:41;1.50;;;1.40;;
26588;SDS011;14235;48.532;8.722;2023-04-24T05:21:07;1.23;;;1.23;;
26588;SDS011;14235;48.532;8.722;2023-04-24T05:23:32;1.75;;;1.20;;
26588;SDS011;14235;48.532;8.722;2023-04-24T05:25:58;1.73;;;1.13;;
26588;SDS011;14235;48.532;8.722;2023-04-24T05:28:23;1.25;;;1.20;;
26588;SDS011;14235;48.532;8.722;2023-04-24T05:30:53;1.40;;;1.30;;
26588;SDS011;14235;48.532;8.722;2023-04-24T05:33:21;1.30;;;1.20;;
26588;SDS011;14235;48.532;8.722;2023-04-24T05:35:47;1.50;;;1.40;;
26588;SDS011;14235;48.532;8.722;2023-04-24T05:38:13;1.20;;;1.20;;
26588;SDS011;14235;48.532;8.722;2023-04-24T05:40:42;1.30;;;1.20;;
26588;SDS011;14235;48.532;8.722;2023-04-24T05:43:08;2.88;;;1.50;;
26588;SDS011;14235;48.532;8.722;2023-04-24T05:45:33;1.40;;;1.40;;
26588;SDS011;14235;48.532;8.722;2023-04-24T05:48:01;1.52;;;1.50;;
26588;SDS011;14235;48.532;8.722;2023-04-24T05:50:27;1.27;;;1.27;;
26588;SDS011;14235;48.532;8.722;2023-04-24T05:52:52;1.55;;;1.48;;
26588;SDS011;14235;48.532;8.722;2023-04-24T05:55:18;3.65;;;2.10;;
26588;SDS011;14235;48.532;8.722;2023-04-24T05:57:44;3.20;;;3.00;;
26588;SDS011;14235;48.532;8.722;2023-04-24T06:00:09;2.17;;;1.88;;
26588;SDS011;14235;48.532;8.722;2023-04-24T06:02:37;1.23;;;1.23;;
26588;SDS011;14235;48.532;8.722;2023-04-24T06:05:03;1.20;;;1.20;;
26588;SDS011;14235;48.532;8.722;2023-04-24T06:07:29;1.60;;;1.50;;
26588;SDS011;14235;48.532;8.722;2023-04-24T06:09:55;1.60;;;1.50;;
26588;SDS011;14235;48.532;8.722;2023-04-24T06:12:21;1.90;;;1.40;;
26588;SDS011;14235;48.532;8.722;2023-04-24T06:14:47;1.52;;;1.45;;
26588;SDS011;14235;48.532;8.722;2023-04-24T06:17:13;1.95;;;1.58;;
26588;SDS011;14235;48.532;8.722;2023-04-24T06:19:39;1.83;;;1.60;;
26588;SDS011;14235;48.532;8.722;2023-04-24T06:22:05;1.60;;;1.50;;
26588;SDS011;14235;48.532;8.722;2023-04-24T06:24:30;1.40;;;1.33;;
26588;SDS011;14235;48.532;8.722;2023-04-24T06:26:56;3.10;;;1.55;;
26588;SDS011;14235;48.532;8.722;2023-04-24T06:29:23;1.50;;;1.40;;
26588;SDS011;14235;48.532;8.722;2023-04-24T06:31:49;1.90;;;1.58;;
26588;SDS011;14235;48.532;8.722;2023-04-24T06:34:15;2.00;;;1.90;;
26588;SDS011;14235;48.532;8.722;2023-04-24T06:36:40;2.50;;;1.67;;
26588;SDS011;14235;48.532;8.722;2023-04-24T06:39:06;1.60;;;1.50;;
26588;SDS011;14235;48.532;8.722;2023-04-24T06:41:32;3.58;;;1.95;;
26588;SDS011;14235;48.532;8.722;2023-04-24T06:43:57;1.83;;;1.73;;
26588;SDS011;14235;48.532;8.722;2023-04-24T06:46:23;1.83;;;1.73;;
26588;SDS011;14235;48.532;8.722;2023-04-24T06:48:51;2.00;;;1.90;;
26588;SDS011;14235;48.532;8.722;2023-04-24T06:51:17;1.60;;;1.50;;
26588;SDS011;14235;48.532;8.722;2023-04-24T06:53:43;1.90;;;1.80;;
26588;SDS011;14235;48.532;8.722;2023-04-24T06:56:08;2.00;;;1.52;;
26588;SDS011;14235;48.532;8.722;2023-04-24T06:58:34;2.85;;;1.90;;
26588;SDS011;14235;48.532;8.722;2023-04-24T07:01:00;2.35;;;1.75;;
26588;SDS011;14235;48.532;8.722;2023-04-24T07:03:25;1.90;;;1.63;;
26588;SDS011;14235;48.532;8.722;2023-04-24T07:05:51;1.30;;;1.30;;
26588;SDS011;14235;48.532;8.722;2023-04-24T07:08:18;1.85;;;1.75;;
26588;SDS011;14235;48.532;8.722;2023-04-24T07:10:45;1.50;;;1.40;;
26588;SDS011;14235;48.532;8.722;2023-04-24T07:13:11;2.55;;;1.48;;
26588;SDS011;14235;48.532;8.722;2023-04-24T07:15:36;1.20;;;1.20;;
26588;SDS011;14235;48.532;8.722;2023-04-24T07:18:02;1.70;;;1.60;;
26588;SDS011;14235;48.532;8.722;2023-04-24T07:20:27;1.30;;;1.30;;
26588;SDS011;14235;48.532;8.722;2023-04-24T07:22:53;1.38;;;1.38;;
26588;SDS011;14235;48.532;8.722;2023-04-24T07:25:19;1.45;;;1.35;;
26588;SDS011;14235;48.532;8.722;2023-04-24T07:27:44;1.30;;;1.30;;
26588;SDS011;14235;48.532;8.722;2023-04-24T07:30:10;1.60;;;1.50;;
26588;SDS011;14235;48.532;8.722;2023-04-24T07:32:36;1.42;;;1.42;;
26588;SDS011;14235;48.532;8.722;2023-04-24T07:35:02;2.00;;;1.67;;
26588;SDS011;14235;48.532;8.722;2023-04-24T07:37:28;3.05;;;1.48;;
26588;SDS011;14235;48.532;8.722;2023-04-24T07:39:54;1.77;;;1.67;;
26588;SDS011;14235;48.532;8.722;2023-04-24T07:42:20;1.60;;;1.50;;
26588;SDS011;14235;48.532;8.722;2023-04-24T07:44:45;1.75;;;1.65;;
26588;SDS011;14235;48.532;8.722;2023-04-24T07:47:12;1.40;;;1.30;;
26588;SDS011;14235;48.532;8.722;2023-04-24T07:49:41;1.52;;;1.42;;
26588;SDS011;14235;48.532;8.722;2023-04-24T07:52:07;1.50;;;1.40;;
26588;SDS011;14235;48.532;8.722;2023-04-24T07:54:33;1.48;;;1.38;;
26588;SDS011;14235;48.532;8.722;2023-04-24T07:56:58;1.70;;;1.60;;
26588;SDS011;14235;48.532;8.722;2023-04-24T07:59:25;2.15;;;1.70;;
26588;SDS011;14235;48.532;8.722;2023-04-24T08:01:50;2.53;;;1.40;;
26588;SDS011;14235;48.532;8.722;2023-04-24T08:04:16;1.60;;;1.50;;
26588;SDS011;14235;48.532;8.722;2023-04-24T08:06:42;1.40;;;1.30;;
26588;SDS011;14235;48.532;8.722;2023-04-24T08:09:08;3.17;;;1.45;;
26588;SDS011;14235;48.532;8.722;2023-04-24T08:11:34;2.20;;;1.60;;
26588;SDS011;14235;48.532;8.722;2023-04-24T08:14:00;1.65;;;1.55;;
26588;SDS011;14235;48.532;8.722;2023-04-24T08:16:26;1.92;;;1.67;;
26588;SDS011;14235;48.532;8.722;2023-04-24T08:18:52;3.25;;;1.80;;
26588;SDS011;14235;48.532;8.722;2023-04-24T08:21:18;4.50;;;1.90;;
26588;SDS011;14235;48.532;8.722;2023-04-24T08:23:44;1.67;;;1.58;;
26588;SDS011;14235;48.532;8.722;2023-04-24T08:26:11;2.40;;;1.50;;
26588;SDS011;14235;48.532;8.722;2023-04-24T08:28:37;3.90;;;1.70;;
26588;SDS011;14235;48.532;8.722;2023-04-24T08:31:03;1.83;;;1.73;;
26588;SDS011;14235;48.532;8.722;2023-04-24T08:33:29;2.45;;;1.98;;
26588;SDS011;14235;48.532;8.722;2023-04-24T08:36:03;1.65;;;1.45;;
26588;SDS011;14235;48.532;8.722;2023-04-24T08:38:30;3.58;;;1.50;;
26588;SDS011;14235;48.532;8.722;2023-04-24T08:40:59;1.48;;;1.30;;
26588;SDS011;14235;48.532;8.722;2023-04-24T08:43:26;1.65;;;1.55;;
26588;SDS011;14235;48.532;8.722;2023-04-24T08:45:52;1.63;;;1.52;;
26588;SDS011;14235;48.532;8.722;2023-04-24T08:48:20;4.43;;;1.60;;
26588;SDS011;14235;48.532;8.722;2023-04-24T08:50:47;2.55;;;1.60;;
26588;SDS011;14235;48.532;8.722;2023-04-24T08:53:16;1.73;;;1.63;;
26588;SDS011;14235;48.532;8.722;2023-04-24T08:55:43;2.65;;;1.40;;
26588;SDS011;14235;48.532;8.722;2023-04-24T08:58:12;2.33;;;1.35;;
26588;SDS011;14235;48.532;8.722;2023-04-24T09:00:39;2.78;;;1.52;;
26588;SDS011;14235;48.532;8.722;2023-04-24T09:03:09;2.50;;;1.30;;
26588;SDS011;14235;48.532;8.722;2023-04-24T09:05:35;2.55;;;2.03;;
26588;SDS011;14235;48.532;8.722;2023-04-24T09:08:01;2.25;;;1.30;;
26588;SDS011;14235;48.532;8.722;2023-04-24T09:10:29;3.72;;;1.27;;
26588;SDS011;14235;48.532;8.722;2023-04-24T09:12:55;3.47;;;1.20;;
26588;SDS011;14235;48.532;8.722;2023-04-24T09:15:23;2.63;;;1.10;;
26588;SDS011;14235;48.532;8.722;2023-04-24T09:17:49;1.63;;;1.20;;
26588;SDS011;14235;48.532;8.722;2023-04-24T09:20:15;2.13;;;1.30;;
26588;SDS011;14235;48.532;8.722;2023-04-24T09:22:41;1.63;;;1.20;;
26588;SDS011;14235;48.532;8.722;2023-04-24T09:25:08;1.90;;;1.17;;
26588;SDS011;14235;48.532;8.722;2023-04-24T09:27:34;1.48;;;1.38;;
26588;SDS011;14235;48.532;8.722;2023-04-24T09:30:00;1.67;;;1.40;;
26588;SDS011;14235;48.532;8.722;2023-04-24T09:32:27;2.60;;;1.27;;
26588;SDS011;14235;48.532;8.722;2023-04-24T09:35:14;1.50;;;1.40;;
26588;SDS011;14235;48.532;8.722;2023-04-24T09:40:17;2.70;;;1.15;;
26588;SDS011;14235;48.532;8.722;2023-04-24T09:42:44;1.65;;;1.20;;
26588;SDS011;14235;48.532;8.722;2023-04-24T09:45:21;1.20;;;1.20;;
26588;SDS011;14235;48.532;8.722;2023-04-24T09:47:51;1.20;;;1.10;;
26588;SDS011;14235;48.532;8.722;2023-04-24T09:50:18;1.40;;;1.30;;
26588;SDS011;14235;48.532;8.722;2023-04-24T09:53:03;1.60;;;1.42;;
26588;SDS011;14235;48.532;8.722;2023-04-24T09:55:30;1.45;;;1.20;;
26588;SDS011;14235;48.532;8.722;2023-04-24T09:57:57;1.30;;;1.20;;
26588;SDS011;14235;48.532;8.722;2023-04-24T10:00:29;1.33;;;1.23;;
26588;SDS011;14235;48.532;8.722;2023-04-24T10:02:57;1.35;;;1.23;;
26588;SDS011;14235;48.532;8.722;2023-04-24T10:05:28;1.48;;;1.00;;
26588;SDS011;14235;48.532;8.722;2023-04-24T10:08:08;1.25;;;1.15;;
26588;SDS011;14235;48.532;8.722;2023-04-24T10:10:40;3.75;;;1.35;;
26588;SDS011;14235;48.532;8.722;2023-04-24T10:13:10;2.10;;;1.23;;
26588;SDS011;14235;48.532;8.722;2023-04-24T10:15:37;2.25;;;1.42;;
26588;SDS011;14235;48.532;8.722;2023-04-24T10:18:04;2.67;;;1.38;;
26588;SDS011;14235;48.532;8.722;2023-04-24T10:20:31;1.20;;;1.15;;
26588;SDS011;14235;48.532;8.722;2023-04-24T10:22:58;1.58;;;1.48;;
26588;SDS011;14235;48.532;8.722;2023-04-24T10:25:25;1.20;;;1.10;;
26588;SDS011;14235;48.532;8.722;2023-04-24T10:27:52;2.28;;;1.50;;
26588;SDS011;14235;48.532;8.722;2023-04-24T10:30:22;2.08;;;1.40;;
26588;SDS011;14235;48.532;8.722;2023-04-24T10:32:48;1.75;;;1.48;;
26588;SDS011;14235;48.532;8.722;2023-04-24T10:35:14;1.30;;;1.20;;
26588;SDS011;14235;48.532;8.722;2023-04-24T10:37:46;1.55;;;1.30;;
26588;SDS011;14235;48.532;8.722;2023-04-24T10:40:19;1.55;;;1.45;;
26588;SDS011;14235;48.532;8.722;2023-04-24T10:43:02;1.60;;;1.50;;
26588;SDS011;14235;48.532;8.722;2023-04-24T10:45:31;2.97;;;1.15;;
26588;SDS011;14235;48.532;8.722;2023-04-24T10:50:43;1.17;;;1.00;;
26588;SDS011;14235;48.532;8.722;2023-04-24T10:53:16;1.13;;;1.13;;
26588;SDS011;14235;48.532;8.722;2023-04-24T10:55:47;1.42;;;1.20;;
26588;SDS011;14235;48.532;8.722;2023-04-24T10:58:21;1.27;;;0.95;;
26588;SDS011;14235;48.532;8.722;2023-04-24T11:00:57;1.20;;;1.20;;
26588;SDS011;14235;48.532;8.722;2023-04-24T11:03:24;1.52;;;1.10;;
26588;SDS011;14235;48.532;8.722;2023-04-24T11:08:42;1.17;;;1.08;;
26588;SDS011;14235;48.532;8.722;2023-04-24T11:11:10;1.02;;;1.00;;
26588;SDS011;14235;48.532;8.722;2023-04-24T11:19:00;1.08;;;1.08;;
26588;SDS011;14235;48.532;8.722;2023-04-24T11:21:28;1.80;;;1.23;;
26588;SDS011;14235;48.532;8.722;2023-04-24T11:24:25;1.00;;;1.00;;
26588;SDS011;14235;48.532;8.722;2023-04-24T11:27:00;0.88;;;0.88;;
26588;SDS011;14235;48.532;8.722;2023-04-24T11:29:39;1.23;;;1.23;;
26588;SDS011;14235;48.532;8.722;2023-04-24T11:32:47;1.33;;;1.23;;
26588;SDS011;14235;48.532;8.722;2023-04-24T11:35:16;1.13;;;1.08;;
26588;SDS011;14235;48.532;8.722;2023-04-24T11:37:47;1.50;;;1.20;;
26588;SDS011;14235;48.532;8.722;2023-04-24T11:40:14;1.02;;;1.02;;
26588;SDS011;14235;48.532;8.722;2023-04-24T11:42:42;1.25;;;1.20;;
26588;SDS011;14235;48.532;8.722;2023-04-24T11:45:13;0.93;;;0.93;;
26588;SDS011;14235;48.532;8.722;2023-04-24T11:47:40;1.95;;;1.13;;
26588;SDS011;14235;48.532;8.722;2023-04-24T11:50:08;0.80;;;0.80;;
26588;SDS011;14235;48.532;8.722;2023-04-24T11:52:39;1.00;;;1.00;;
26588;SDS011;14235;48.532;8.722;2023-04-24T11:55:06;1.05;;;1.02;;
26588;SDS011;14235;48.532;8.722;2023-04-24T11:57:33;1.00;;;1.00;;
26588;SDS011;14235;48.532;8.722;2023-04-24T12:00:01;1.08;;;0.98;;
26588;SDS011;14235;48.532;8.722;2023-04-24T12:02:28;2.95;;;1.88;;
26588;SDS011;14235;48.532;8.722;2023-04-24T12:04:54;2.08;;;1.10;;
26588;SDS011;14235;48.532;8.722;2023-04-24T12:07:20;0.90;;;0.90;;
26588;SDS011;14235;48.532;8.722;2023-04-24T12:09:47;1.08;;;0.98;;
26588;SDS011;14235;48.532;8.722;2023-04-24T12:12:15;1.40;;;1.25;;
26588;SDS011;14235;48.532;8.722;2023-04-24T12:14:43;1.63;;;1.17;;
26588;SDS011;14235;48.532;8.722;2023-04-24T12:17:17;1.83;;;1.17;;
26588;SDS011;14235;48.532;8.722;2023-04-24T12:19:49;1.50;;;1.50;;
26588;SDS011;14235;48.532;8.722;2023-04-24T12:22:15;1.55;;;1.45;;
26588;SDS011;14235;48.532;8.722;2023-04-24T12:24:59;1.23;;;1.20;;
26588;SDS011;14235;48.532;8.722;2023-04-24T12:27:33;1.40;;;1.40;;
26588;SDS011;14235;48.532;8.722;2023-04-24T12:29:59;1.55;;;1.48;;
26588;SDS011;14235;48.532;8.722;2023-04-24T12:32:26;1.40;;;1.40;;
26588;SDS011;14235;48.532;8.722;2023-04-24T12:34:52;1.20;;;1.20;;
26588;SDS011;14235;48.532;8.722;2023-04-24T12:37:19;1.75;;;1.65;;
26588;SDS011;14235;48.532;8.722;2023-04-24T12:39:58;1.40;;;1.30;;
26588;SDS011;14235;48.532;8.722;2023-04-24T12:42:29;1.90;;;1.50;;
26588;SDS011;14235;48.532;8.722;2023-04-24T12:44:59;1.35;;;1.23;;
26588;SDS011;14235;48.532;8.722;2023-04-24T12:47:27;1.27;;;1.17;;
26588;SDS011;14235;48.532;8.722;2023-04-24T12:49:54;2.05;;;1.60;;
26588;SDS011;14235;48.532;8.722;2023-04-24T12:52:20;1.60;;;1.45;;
26588;SDS011;14235;48.532;8.722;2023-04-24T12:54:51;2.63;;;1.50;;
26588;SDS011;14235;48.532;8.722;2023-04-24T12:57:18;1.50;;;1.35;;
26588;SDS011;14235;48.532;8.722;2023-04-24T12:59:44;2.53;;;1.70;;
26588;SDS011;14235;48.532;8.722;2023-04-24T13:02:10;1.52;;;1.42;;
26588;SDS011;14235;48.532;8.722;2023-04-24T13:04:36;1.60;;;1.50;;
26588;SDS011;14235;48.532;8.722;2023-04-24T13:07:01;1.77;;;1.50;;
26588;SDS011;14235;48.532;8.722;2023-04-24T13:09:28;1.58;;;1.48;;
26588;SDS011;14235;48.532;8.722;2023-04-24T13:11:54;1.35;;;1.35;;
26588;SDS011;14235;48.532;8.722;2023-04-24T13:14:21;2.08;;;1.60;;
26588;SDS011;14235;48.532;8.722;2023-04-24T13:16:47;1.83;;;1.70;;
26588;SDS011;14235;48.532;8.722;2023-04-24T13:19:12;1.55;;;1.45;;
26588;SDS011;14235;48.532;8.722;2023-04-24T13:21:38;1.60;;;1.50;;
26588;SDS011;14235;48.532;8.722;2023-04-24T13:24:03;1.42;;;1.30;;
26588;SDS011;14235;48.532;8.722;2023-04-24T13:26:30;1.45;;;1.35;;
26588;SDS011;14235;48.532;8.722;2023-04-24T13:28:55;1.55;;;1.45;;
26588;SDS011;14235;48.532;8.722;2023-04-24T13:31:21;1.50;;;1.50;;
26588;SDS011;14235;48.532;8.722;2023-04-24T13:33:46;1.60;;;1.40;;
26588;SDS011;14235;48.532;8.722;2023-04-24T13:36:12;1.55;;;1.45;;
26588;SDS011;14235;48.532;8.722;2023-04-24T13:38:38;1.70;;;1.60;;
26588;SDS011;14235;48.532;8.722;2023-04-24T13:41:04;1.55;;;1.48;;
26588;SDS011;14235;48.532;8.722;2023-04-24T13:43:30;1.70;;;1.52;;
26588;SDS011;14235;48.532;8.722;2023-04-24T13:45:55;2.40;;;1.52;;
26588;SDS011;14235;48.532;8.722;2023-04-24T13:48:21;1.42;;;1.42;;
26588;SDS011;14235;48.532;8.722;2023-04-24T13:50:46;2.40;;;1.63;;
26588;SDS011;14235;48.532;8.722;2023-04-24T13:53:14;1.92;;;1.70;;
26588;SDS011;14235;48.532;8.722;2023-04-24T13:55:40;1.77;;;1.60;;
26588;SDS011;14235;48.532;8.722;2023-04-24T13:58:05;1.60;;;1.50;;
26588;SDS011;14235;48.532;8.722;2023-04-24T14:00:31;2.00;;;1.45;;
26588;SDS011;14235;48.532;8.722;2023-04-24T14:02:57;1.52;;;1.42;;
26588;SDS011;14235;48.532;8.722;2023-04-24T14:05:22;2.30;;;2.10;;
26588;SDS011;14235;48.532;8.722;2023-04-24T14:07:48;3.40;;;2.75;;
26588;SDS011;14235;48.532;8.722;2023-04-24T14:10:14;1.58;;;1.40;;
26588;SDS011;14235;48.532;8.722;2023-04-24T14:12:39;1.58;;;1.55;;
26588;SDS011;14235;48.532;8.722;2023-04-24T14:15:05;1.52;;;1.42;;
26588;SDS011;14235;48.532;8.722;2023-04-24T14:17:31;1.70;;;1.60;;
26588;SDS011;14235;48.532;8.722;2023-04-24T14:19:57;1.58;;;1.40;;
26588;SDS011;14235;48.532;8.722;2023-04-24T14:22:24;1.50;;;1.40;;
26588;SDS011;14235;48.532;8.722;2023-04-24T14:24:50;3.13;;;2.00;;
26588;SDS011;14235;48.532;8.722;2023-04-24T14:27:15;1.95;;;1.50;;
26588;SDS011;14235;48.532;8.722;2023-04-24T14:29:41;1.73;;;1.63;;
26588;SDS011;14235;48.532;8.722;2023-04-24T14:32:07;3.88;;;1.55;;
26588;SDS011;14235;48.532;8.722;2023-04-24T14:34:34;1.58;;;1.48;;
26588;SDS011;14235;48.532;8.722;2023-04-24T14:36:59;3.15;;;1.92;;
26588;SDS011;14235;48.532;8.722;2023-04-24T14:39:25;2.25;;;1.52;;
26588;SDS011;14235;48.532;8.722;2023-04-24T14:41:50;2.80;;;1.80;;
26588;SDS011;14235;48.532;8.722;2023-04-24T14:44:16;1.60;;;1.50;;
26588;SDS011;14235;48.532;8.722;2023-04-24T14:46:42;1.70;;;1.60;;
26588;SDS011;14235;48.532;8.722;2023-04-24T14:49:08;1.48;;;1.42;;
26588;SDS011;14235;48.532;8.722;2023-04-24T14:51:35;1.38;;;1.27;;
26588;SDS011;14235;48.532;8.722;2023-04-24T14:54:00;1.60;;;1.50;;
26588;SDS011;14235;48.532;8.722;2023-04-24T14:56:26;1.88;;;1.70;;
26588;SDS011;14235;48.532;8.722;2023-04-24T14:58:52;1.70;;;1.60;;
26588;SDS011;14235;48.532;8.722;2023-04-24T15:01:18;2.45;;;1.30;;